createdAt,value
2023-01-17T05:02:33.717Z,1.30
2023-01-17T05:05:00.409Z,1.43
2023-01-17T05:07:27.007Z,1.46
2023-01-17T05:09:53.681Z,1.59
2023-01-17T05:12:20.653Z,1.57
2023-01-17T05:14:47.269Z,1.65
2023-01-17T05:17:14.082Z,1.68
2023-01-17T05:19:40.810Z,1.72
2023-01-17T05:22:14.997Z,1.67
2023-01-17T05:24:46.455Z,1.67
2023-01-17T05:27:16.281Z,1.77
2023-01-17T05:29:45.024Z,1.79
2023-01-17T05:32:12.213Z,1.96
2023-01-17T05:34:40.887Z,2.01
2023-01-17T05:37:09.632Z,2.10
2023-01-17T05:39:36.841Z,2.19
2023-01-17T05:42:04.125Z,2.25
2023-01-17T05:44:31.437Z,2.29
2023-01-17T05:47:01.400Z,2.27
2023-01-17T05:49:28.719Z,2.19
2023-01-17T05:52:16.877Z,2.22
2023-01-17T05:54:44.111Z,2.17
2023-01-17T05:57:11.748Z,2.25
2023-01-17T05:59:39.879Z,2.16
2023-01-17T06:02:08.298Z,2.20
2023-01-17T06:04:36.048Z,2.12
2023-01-17T06:07:03.473Z,2.20
2023-01-17T06:09:34.325Z,2.26
2023-01-17T06:12:01.675Z,2.16
2023-01-17T06:14:29.347Z,2.17
2023-01-17T06:16:58.866Z,2.26
2023-01-17T06:19:27.605Z,2.32
2023-01-17T06:22:00.891Z,2.13
2023-01-17T06:24:31.349Z,1.99
2023-01-17T06:27:01.345Z,1.92
2023-01-17T06:29:31.483Z,1.98
2023-01-17T06:32:01.473Z,1.92
2023-01-17T06:34:29.247Z,1.88
2023-01-17T06:36:56.380Z,1.82
2023-01-17T06:39:23.636Z,1.86
2023-01-17T06:41:54.213Z,1.85
2023-01-17T06:44:34.086Z,1.83
2023-01-17T06:47:02.007Z,1.86
2023-01-17T16:39:41.740Z,2.54
2023-01-17T16:42:11.740Z,2.53
2023-01-17T16:44:38.255Z,2.50
2023-01-17T16:47:04.995Z,2.53
2023-01-17T16:49:35.531Z,2.53
2023-01-17T16:52:02.183Z,2.57
2023-01-17T16:54:28.892Z,2.57
2023-01-17T16:56:55.573Z,2.51
2023-01-17T16:59:22.368Z,2.51
2023-01-17T17:01:50.485Z,2.54
2023-01-17T17:04:17.158Z,2.54
2023-01-17T17:06:43.656Z,2.46
2023-01-17T17:09:10.384Z,2.47
2023-01-17T17:11:36.908Z,2.51
2023-01-17T17:14:03.587Z,2.56
2023-01-17T17:16:30.817Z,2.51
2023-01-17T17:19:00.094Z,2.46
2023-01-17T17:21:27.771Z,2.48
2023-01-17T17:23:59.061Z,2.38
2023-01-17T17:26:31.005Z,2.37
2023-01-17T17:28:57.991Z,2.30
2023-01-17T17:31:25.710Z,2.25
2023-01-17T17:33:52.694Z,2.19
2023-01-17T17:36:19.402Z,2.15
2023-01-17T17:38:51.924Z,2.16
2023-01-17T17:41:40.960Z,2.17
2023-01-17T17:44:07.671Z,2.13
2023-01-17T17:46:34.964Z,2.15
2023-01-17T17:49:01.943Z,2.08
2023-01-17T17:51:36.602Z,2.09
2023-01-17T17:54:08.596Z,2.06
2023-01-17T17:56:39.191Z,2.06
2023-01-17T17:59:08.296Z,2.03
2023-01-17T18:01:38.305Z,1.98
2023-01-17T18:04:07.494Z,1.92
2023-01-17T18:06:35.480Z,1.91
2023-01-17T18:09:03.151Z,1.85
2023-01-17T18:11:31.186Z,1.78
2023-01-17T18:14:00.330Z,1.77
2023-01-17T18:16:39.283Z,1.75
2023-01-17T18:19:06.536Z,1.68
2023-01-17T18:21:37.738Z,1.61
2023-01-17T18:24:06.274Z,1.55
2023-01-17T18:26:36.014Z,1.51
2023-01-17T18:29:04.406Z,1.52
2023-01-17T18:31:31.270Z,1.50
2023-01-17T18:33:59.822Z,1.55
2023-01-17T18:36:30.745Z,1.51
2023-01-17T18:38:57.743Z,1.51
2023-01-17T18:41:28.342Z,1.47
2023-01-17T18:43:58.315Z,1.51
2023-01-17T18:46:26.504Z,1.52
2023-01-17T18:48:57.017Z,1.62
2023-01-17T18:51:24.108Z,1.59
2023-01-17T18:53:53.039Z,1.52
2023-01-17T18:56:21.537Z,1.61
2023-01-17T18:58:49.353Z,1.58
2023-01-17T19:01:22.737Z,1.54
2023-01-17T19:03:52.447Z,1.55
2023-01-17T19:06:22.065Z,1.54
2023-01-17T19:08:51.666Z,1.52
2023-01-17T19:11:20.054Z,1.58
2023-01-17T19:13:48.563Z,1.51
2023-01-17T19:16:19.932Z,1.41
2023-01-17T19:18:47.271Z,1.39
2023-01-17T19:21:16.463Z,1.43
2023-01-17T19:23:43.685Z,1.47
2023-01-17T19:26:11.822Z,1.43
2023-01-17T19:28:43.063Z,1.31
2023-01-17T19:31:13.001Z,1.41
2023-01-17T19:33:42.272Z,1.34
2023-01-17T19:36:13.511Z,1.30
2023-01-17T19:38:40.523Z,1.29
2023-01-17T19:41:15.334Z,1.33
2023-01-17T19:43:42.527Z,1.46
2023-01-17T19:46:10.672Z,1.51
2023-01-17T19:48:39.127Z,1.44
2023-01-17T19:51:12.733Z,1.51
2023-01-17T19:53:41.008Z,1.41
2023-01-17T19:56:15.362Z,1.40
2023-01-17T19:58:42.832Z,1.37
2023-01-17T20:01:24.733Z,1.40
2023-01-17T20:03:52.094Z,1.31
2023-01-17T20:06:21.008Z,1.27
2023-01-17T20:08:48.007Z,1.31
2023-01-17T20:11:18.527Z,1.23
2023-01-17T20:13:47.841Z,1.23
2023-01-17T20:16:16.586Z,1.23
2023-01-17T20:18:43.904Z,1.20
2023-01-17T20:21:15.271Z,1.30
2023-01-17T20:23:43.423Z,1.20
2023-01-17T20:26:35.991Z,1.13
2023-01-17T20:29:07.404Z,1.10
2023-01-17T20:31:38.226Z,1.15
2023-01-17T20:34:05.613Z,1.15
2023-01-17T20:36:33.213Z,1.12
2023-01-17T20:39:03.381Z,1.15
2023-01-17T20:41:32.627Z,1.07
2023-01-17T20:44:00.865Z,1.02
2023-01-17T20:46:31.363Z,1.06
2023-01-17T20:48:58.371Z,1.02
2023-01-17T20:51:27.099Z,0.99
2023-01-17T20:53:56.358Z,0.97
2023-01-17T20:56:24.378Z,0.97
2023-01-17T20:58:52.310Z,0.96
2023-01-17T21:01:22.025Z,0.97
2023-01-17T21:03:51.649Z,0.95
2023-01-17T21:06:20.005Z,0.92
2023-01-17T21:08:47.965Z,0.92
2023-01-17T21:11:17.475Z,0.93
2023-01-17T21:13:44.248Z,1.00
2023-01-17T21:16:16.995Z,0.97
2023-01-17T21:18:47.552Z,1.03
2023-01-17T21:21:17.702Z,1.20
2023-01-17T21:23:45.121Z,1.24
2023-01-17T21:26:13.569Z,1.19
2023-01-17T21:28:41.913Z,1.23
2023-01-17T21:31:20.447Z,1.22
2023-01-17T21:33:47.756Z,1.16
2023-01-17T21:36:19.474Z,1.12
2023-01-17T21:38:52.358Z,1.17
2023-01-17T21:41:20.901Z,1.26
2023-01-17T21:43:47.934Z,1.23
2023-01-17T21:46:14.673Z,1.29
2023-01-17T21:48:41.195Z,1.30
2023-01-17T21:51:08.471Z,1.31
2023-01-17T21:53:39.385Z,1.24
2023-01-17T21:56:29.437Z,1.15
2023-01-17T21:58:57.586Z,1.12
2023-01-17T22:01:26.892Z,1.12
2023-01-17T22:03:58.844Z,1.17
2023-01-17T22:06:28.895Z,1.10
2023-01-17T22:08:56.229Z,1.06
2023-01-17T22:11:25.752Z,1.02
2023-01-17T22:13:52.759Z,0.96
2023-01-17T22:16:23.479Z,0.97
2023-01-17T22:18:51.036Z,1.00
2023-01-17T22:21:21.730Z,0.96
2023-01-17T22:23:53.051Z,0.92
2023-01-17T22:26:21.398Z,0.96
2023-01-17T22:28:48.329Z,0.97
2023-01-17T22:31:24.700Z,0.97
2023-01-17T22:33:59.692Z,0.88
2023-01-17T22:36:26.857Z,0.83
2023-01-17T22:38:54.568Z,0.82
2023-01-17T22:41:24.942Z,0.76
2023-01-17T22:43:53.117Z,0.71
2023-01-17T22:46:22.867Z,0.69
2023-01-17T22:48:49.890Z,0.72
2023-01-17T22:51:18.111Z,0.76
2023-01-17T22:53:47.828Z,0.81
2023-01-17T22:56:17.817Z,0.73
2023-01-17T22:58:45.101Z,0.72
